| Date | Time | Temp. (oF) | Dew Point (oF) | Rel. Hum. (%) | Press. (in.) | Wind Dir. | Wind Speed (mph) | Hourly Rainfall (in.) |
|
|---|---|---|---|---|---|---|---|---|---|
| 1 | 01/26 | 00:00 | 26 | 26 | 100 | 30.08 | ENE | 1 | 0.00 |
| 2 | 01/25 | 23:00 | 25 | 24 | 100 | 30.12 | SW | 1 | 0.00 |
| 3 | 01/25 | 22:00 | 25 | 24 | 100 | 30.11 | NNE | 1 | 0.00 |
| 4 | 01/25 | 21:00 | 28 | 27 | 100 | 30.13 | NE | 2 | 0.00 |
| 5 | 01/25 | 20:00 | 29 | 28 | 99 | 30.14 | SW | 1 | 0.00 |
| 6 | 01/25 | 19:00 | 30 | 28 | 93 | 30.15 | E | 1 | 0.00 |
| 7 | 01/25 | 18:00 | 32 | 28 | 85 | 30.13 | SSW | 1 | 0.00 |
| 8 | 01/25 | 17:00 | 34 | 28 | 80 | 30.11 | SE | 3 | 0.00 |
| 9 | 01/25 | 16:00 | 36 | 26 | 67 | 30.11 | NE | 4 | 0.00 |
| 10 | 01/25 | 15:00 | 36 | 24 | 64 | 30.10 | NE | 1 | 0.00 |
| 11 | 01/25 | 14:00 | 37 | 25 | 64 | 30.10 | W | 3 | 0.00 |
| 12 | 01/25 | 13:00 | 34 | 24 | 69 | 30.13 | ESE | 0 | 0.00 |
| 13 | 01/25 | 12:00 | 33 | 26 | 76 | 30.15 | S | 2 | 0.00 |
| 14 | 01/25 | 11:00 | 31 | 27 | 86 | 30.17 | WNW | 1 | 0.00 |
| 15 | 01/25 | 10:00 | 30 | 28 | 93 | 30.18 | SSW | 3 | 0.00 |
| 16 | 01/25 | 09:00 | 27 | 26 | 99 | 30.19 | SSW | 5 | 0.00 |
| 17 | 01/25 | 08:00 | 26 | 26 | 100 | 30.18 | SSW | 2 | 0.00 |
| 18 | 01/25 | 07:00 | 26 | 26 | 100 | 30.19 | S | 2 | 0.00 |
| 19 | 01/25 | 06:00 | 26 | 26 | 100 | 30.19 | SSE | 4 | 0.00 |
| 20 | 01/25 | 05:00 | 25 | 24 | 100 | 30.20 | S | 3 | 0.00 |
| 21 | 01/25 | 04:00 | 25 | 24 | 100 | 30.22 | SSE | 1 | 0.00 |
| 22 | 01/25 | 03:00 | 24 | 23 | 98 | 30.25 | SSW | 1 | 0.00 |
| 23 | 01/25 | 02:00 | 23 | 21 | 94 | 30.25 | SSE | 2 | 0.00 |
| 24 | 01/25 | 01:00 | 22 | 18 | 87 | 30.27 | SW | 2 | 0.00 |